Time;durP1;ratioP1;P1;durP2;ratioP2;P2;SDS_P1;SDS_P2;PMS_P1;PMS_P2;Temp;Humidity;BMP_temperature;BMP_pressure;BME280_temperature;BME280_humidity;BME280_pressure;Samples;Min_cycle;Max_cycle;Signal;HPM_P1;HPM_P2
2021/12/04 00:01:53;;;;;;;22.25;17.23;;;2.00;93.30;;;;;;5077070;28;20026;-71
2021/12/04 00:04:54;;;;;;;22.38;16.90;;;2.10;93.10;;;;;;5082936;28;20052;-72
2021/12/04 00:07:12;;;;;;;22.75;17.42;;;2.10;92.40;;;;;;5089933;28;20089;-72
2021/12/04 00:09:38;;;;;;;20.58;17.13;;;2.10;92.10;;;;;;5078030;28;20028;-71
2021/12/04 00:12:06;;;;;;;22.70;16.27;;;2.00;91.70;;;;;;5077254;28;20027;-72
2021/12/04 00:14:35;;;;;;;21.75;16.50;;;1.90;91.70;;;;;;5078010;28;20481;-72
2021/12/04 00:17:03;;;;;;;21.45;17.10;;;1.90;91.90;;;;;;5095234;28;20384;-71
2021/12/04 00:19:29;;;;;;;20.95;17.70;;;1.90;92.00;;;;;;5077025;28;20469;-72
2021/12/04 00:21:55;;;;;;;22.65;17.15;;;1.90;92.10;;;;;;5077711;28;20072;-72
2021/12/04 00:24:21;;;;;;;22.63;18.02;;;1.90;92.00;;;;;;5076913;28;20483;-72
2021/12/04 00:26:48;;;;;;;23.48;17.48;;;1.80;92.00;;;;;;5076719;28;20032;-71
2021/12/04 00:29:14;;;;;;;21.05;17.00;;;1.80;92.10;;;;;;5077657;28;20458;-71
2021/12/04 00:31:46;;;;;;;23.90;18.00;;;1.80;92.10;;;;;;5076706;28;20115;-71
2021/12/04 00:34:12;;;;;;;22.52;17.38;;;1.80;92.10;;;;;;5094896;28;20031;-71
2021/12/04 00:50:09;;;;;;;25.90;19.60;;;1.70;92.60;;;;;;5104877;28;20039;-72
2021/12/04 00:52:35;;;;;;;22.48;17.75;;;1.60;92.40;;;;;;5092704;28;20458;-74
2021/12/04 00:55:03;;;;;;;23.70;18.45;;;1.60;92.60;;;;;;5076202;28;20518;-71
2021/12/04 00:57:28;;;;;;;25.45;19.52;;;1.60;92.90;;;;;;5094438;28;20393;-70
2021/12/04 00:59:54;;;;;;;25.75;19.35;;;1.60;92.60;;;;;;5093416;28;20043;-70
2021/12/04 01:02:20;;;;;;;26.33;20.08;;;1.70;92.70;;;;;;5077050;28;20519;-71
2021/12/04 01:04:47;;;;;;;25.05;19.23;;;1.70;92.70;;;;;;5076392;28;20032;-71
2021/12/04 01:07:13;;;;;;;26.42;19.67;;;1.60;92.80;;;;;;5094855;28;20050;-71
2021/12/04 01:09:38;;;;;;;26.40;19.67;;;1.70;92.70;;;;;;5076865;28;20024;-71
2021/12/04 01:12:04;;;;;;;27.85;20.80;;;1.70;92.40;;;;;;5076090;28;20221;-71
2021/12/04 01:14:33;;;;;;;27.23;20.33;;;1.70;92.30;;;;;;5076952;28;20039;-71
2021/12/04 01:17:00;;;;;;;24.60;19.73;;;1.70;92.30;;;;;;5075584;28;20034;-71
2021/12/04 01:19:26;;;;;;;28.67;21.48;;;1.70;92.20;;;;;;5069507;28;20052;-71
2021/12/04 01:21:53;;;;;;;24.80;18.88;;;1.60;92.10;;;;;;5056177;28;20024;-71
2021/12/04 01:24:20;;;;;;;27.13;20.98;;;1.60;92.10;;;;;;5074233;28;20398;-70
2021/12/04 01:26:47;;;;;;;26.00;21.90;;;1.50;92.20;;;;;;5076744;28;20039;-71
2021/12/04 01:29:13;;;;;;;24.45;19.67;;;1.50;92.40;;;;;;5075826;28;20081;-71
2021/12/04 01:31:39;;;;;;;27.48;21.48;;;1.50;92.40;;;;;;5094502;28;20070;-71
2021/12/04 01:34:05;;;;;;;25.60;20.98;;;1.40;92.40;;;;;;5093946;28;20466;-71
2021/12/04 01:36:31;;;;;;;25.98;20.75;;;1.30;92.60;;;;;;5094621;28;20028;-72
2021/12/04 01:38:57;;;;;;;27.90;22.08;;;1.40;92.80;;;;;;5075831;28;20028;-72
2021/12/04 01:41:23;;;;;;;26.08;20.92;;;1.30;92.80;;;;;;5100122;28;20085;-71
2021/12/04 01:43:48;;;;;;;26.40;20.85;;;1.30;93.00;;;;;;5102165;28;20047;-72
2021/12/04 01:46:14;;;;;;;28.45;21.95;;;1.30;92.70;;;;;;5093717;28;20032;-72
2021/12/04 01:48:40;;;;;;;27.25;21.33;;;1.30;92.90;;;;;;5068316;28;20475;-71
2021/12/04 01:51:06;;;;;;;26.55;21.70;;;1.30;92.70;;;;;;5075516;28;20028;-71
2021/12/04 01:53:32;;;;;;;27.92;21.30;;;1.30;92.70;;;;;;5071730;28;20075;-71
2021/12/04 01:55:59;;;;;;;28.35;21.55;;;1.20;92.60;;;;;;5065590;28;20077;-71
2021/12/04 01:58:26;;;;;;;29.23;21.45;;;1.10;92.70;;;;;;5073866;28;20028;-70
2021/12/04 02:00:52;;;;;;;28.60;21.95;;;1.10;92.90;;;;;;5068134;28;20066;-72
2021/12/04 02:03:18;;;;;;;29.02;22.10;;;1.10;93.00;;;;;;5094106;28;20028;-72
2021/12/04 02:05:46;;;;;;;29.50;21.95;;;1.10;93.20;;;;;;5074138;28;20034;-71
2021/12/04 02:08:15;;;;;;;28.75;21.80;;;1.10;93.00;;;;;;5093122;28;20107;-72
2021/12/04 02:10:42;;;;;;;30.77;22.55;;;1.10;92.70;;;;;;5075423;28;20028;-71
2021/12/04 02:13:08;;;;;;;34.28;23.35;;;1.00;92.70;;;;;;5093064;28;20028;-71
2021/12/04 02:15:34;;;;;;;30.05;22.38;;;1.00;92.70;;;;;;5075876;28;20021;-71
2021/12/04 02:18:02;;;;;;;31.95;23.08;;;0.90;92.80;;;;;;5074722;28;20444;-73
2021/12/04 02:20:28;;;;;;;29.45;22.73;;;0.90;92.80;;;;;;5074965;28;20039;-72
2021/12/04 02:22:56;;;;;;;29.17;22.02;;;0.80;93.00;;;;;;5075785;28;20153;-71
2021/12/04 02:25:21;;;;;;;30.15;22.88;;;0.70;93.10;;;;;;5075806;28;20492;-71
2021/12/04 02:27:48;;;;;;;28.70;22.85;;;0.70;93.20;;;;;;5093939;28;20032;-71
2021/12/04 02:30:20;;;;;;;30.20;23.08;;;0.60;93.30;;;;;;5075752;28;20520;-71
2021/12/04 02:32:46;;;;;;;29.67;22.95;;;0.60;93.50;;;;;;5076237;28;20031;-72
2021/12/04 02:35:12;;;;;;;29.75;23.10;;;0.60;93.90;;;;;;5082982;28;20435;-71
2021/12/04 02:37:39;;;;;;;30.83;23.55;;;0.50;94.20;;;;;;5085475;28;20458;-72
2021/12/04 02:40:08;;;;;;;32.67;23.70;;;0.50;94.60;;;;;;5094566;28;20040;-72
2021/12/04 02:42:34;;;;;;;28.83;22.08;;;0.50;94.70;;;;;;5093671;28;20028;-72
2021/12/04 02:45:01;;;;;;;29.83;22.40;;;0.50;94.70;;;;;;5092638;28;20112;-73
2021/12/04 02:47:28;;;;;;;27.95;21.52;;;0.60;94.70;;;;;;5074739;28;20119;-72
2021/12/04 02:49:55;;;;;;;30.70;21.95;;;0.60;94.60;;;;;;5092979;28;20387;-71
2021/12/04 02:52:22;;;;;;;29.60;22.40;;;0.60;94.80;;;;;;5075567;28;20123;-71
2021/12/04 02:54:49;;;;;;;29.08;21.75;;;0.70;94.50;;;;;;5075006;28;20041;-71
2021/12/04 02:57:17;;;;;;;28.52;22.38;;;0.70;93.90;;;;;;5075501;28;20034;-71
2021/12/04 02:59:44;;;;;;;31.35;22.05;;;0.60;93.70;;;;;;5074697;28;20035;-71
2021/12/04 03:02:18;;;;;;;28.38;22.33;;;0.60;93.70;;;;;;5075482;28;20076;-72
2021/12/04 03:04:45;;;;;;;29.13;22.10;;;0.60;93.70;;;;;;5091301;28;20032;-72
2021/12/04 03:07:12;;;;;;;30.35;22.90;;;0.60;93.40;;;;;;5092125;28;20024;-72
2021/12/04 03:09:38;;;;;;;30.23;22.95;;;0.60;93.50;;;;;;5074850;28;20396;-72
2021/12/04 03:12:05;;;;;;;32.78;25.55;;;0.60;93.20;;;;;;5092373;28;20021;-73
2021/12/04 03:14:31;;;;;;;34.17;25.65;;;0.60;93.10;;;;;;5055117;28;20067;-72
2021/12/04 03:16:57;;;;;;;33.97;24.90;;;0.70;93.00;;;;;;5070269;28;20055;-72
2021/12/04 03:19:24;;;;;;;29.77;23.05;;;0.70;93.00;;;;;;5093457;28;20077;-72
2021/12/04 03:21:51;;;;;;;29.23;22.75;;;0.70;92.90;;;;;;5061305;28;20372;-72
2021/12/04 03:24:18;;;;;;;29.85;23.55;;;0.70;92.60;;;;;;5059030;28;20040;-71
2021/12/04 03:26:46;;;;;;;32.00;23.90;;;0.60;92.60;;;;;;5090725;28;20028;-73
2021/12/04 03:29:17;;;;;;;30.15;22.85;;;0.60;92.60;;;;;;5105262;28;20119;-72
2021/12/04 03:42:39;;;;;;;35.03;26.58;;;0.50;92.40;;;;;;5077790;28;20039;-73
2021/12/04 03:45:07;;;;;;;36.25;26.83;;;0.40;92.80;;;;;;5078435;28;20177;-72
2021/12/04 03:47:34;;;;;;;32.95;25.20;;;0.40;92.80;;;;;;5068647;28;20089;-73
2021/12/04 03:50:00;;;;;;;32.42;25.38;;;0.40;93.00;;;;;;5095466;28;20028;-72
2021/12/04 03:52:25;;;;;;;33.97;25.70;;;0.30;93.00;;;;;;5093925;28;20397;-71
2021/12/04 03:54:51;;;;;;;34.15;25.35;;;0.30;93.20;;;;;;5096217;28;20036;-72
2021/12/04 03:57:17;;;;;;;32.10;24.15;;;0.30;93.40;;;;;;5092849;28;20020;-71
2021/12/04 03:59:48;;;;;;;30.25;23.88;;;0.30;93.20;;;;;;5058582;28;20543;-72
2021/12/04 04:02:15;;;;;;;32.65;24.85;;;0.30;93.40;;;;;;5064129;28;20024;-72
2021/12/04 04:04:41;;;;;;;35.55;26.55;;;0.30;93.30;;;;;;5076309;28;20036;-72
2021/12/04 04:07:07;;;;;;;39.70;29.63;;;0.30;93.10;;;;;;5077755;28;20032;-72
2021/12/04 04:09:34;;;;;;;39.33;30.60;;;0.20;93.10;;;;;;5092996;28;20036;-74
2021/12/04 04:12:01;;;;;;;42.03;32.35;;;0.20;93.20;;;;;;5077532;28;20051;-71
2021/12/04 04:14:27;;;;;;;40.50;31.50;;;0.20;93.40;;;;;;5077902;28;20035;-71
2021/12/04 04:16:55;;;;;;;44.65;34.00;;;0.20;93.50;;;;;;5077321;28;20031;-72
2021/12/04 04:19:22;;;;;;;43.15;32.55;;;0.20;93.40;;;;;;5077701;28;20044;-72
2021/12/04 04:21:48;;;;;;;44.13;31.55;;;0.10;93.50;;;;;;5076524;28;20028;-71
2021/12/04 04:24:17;;;;;;;38.63;28.85;;;0.10;93.80;;;;;;5107133;28;20089;-72
2021/12/04 04:26:44;;;;;;;39.38;29.02;;;0.10;94.10;;;;;;5102687;28;20036;-71
2021/12/04 04:29:11;;;;;;;34.97;27.08;;;0.10;94.20;;;;;;5077901;28;20103;-71
2021/12/04 04:31:46;;;;;;;37.25;27.92;;;0.10;94.30;;;;;;5076580;28;20028;-71
2021/12/04 04:34:30;;;;;;;34.47;26.45;;;0.10;94.10;;;;;;5077519;28;20032;-72
2021/12/04 05:14:28;;;;;;;46.55;33.83;;;-0.10;94.50;;;;;;5094598;28;20028;-71
2021/12/04 05:17:07;;;;;;;49.15;35.63;;;-0.20;94.40;;;;;;5079852;28;20054;-72
2021/12/04 05:19:52;;;;;;;47.53;34.75;;;-0.30;94.70;;;;;;5103425;28;20054;-73
2021/12/04 05:22:19;;;;;;;51.13;35.97;;;-0.50;95.20;;;;;;5099197;28;20370;-72
2021/12/04 05:24:45;;;;;;;54.13;39.15;;;-0.50;96.00;;;;;;5081365;28;20101;-72
2021/12/04 05:27:11;;;;;;;62.97;44.92;;;-0.40;96.30;;;;;;5071519;28;20093;-73
2021/12/04 05:29:37;;;;;;;56.80;42.85;;;-0.40;96.40;;;;;;5068573;28;20059;-71
2021/12/04 05:32:05;;;;;;;56.22;40.55;;;-0.30;96.20;;;;;;5070396;28;20115;-69
2021/12/04 05:34:32;;;;;;;62.30;43.53;;;-0.30;96.20;;;;;;5090648;28;20109;-72
2021/12/04 05:36:58;;;;;;;60.20;42.40;;;-0.30;95.70;;;;;;5091216;28;20044;-71
2021/12/04 05:39:24;;;;;;;66.18;46.97;;;-0.30;95.70;;;;;;5087143;28;20484;-70
2021/12/04 05:41:51;;;;;;;63.83;47.03;;;-0.40;95.60;;;;;;5088934;28;20402;-73
2021/12/04 05:44:22;;;;;;;61.58;45.40;;;-0.40;95.50;;;;;;5072922;28;20063;-72
2021/12/04 05:47:03;;;;;;;65.35;46.40;;;-0.40;95.90;;;;;;5078676;28;20059;-74
2021/12/04 05:49:49;;;;;;;71.57;49.58;;;-0.40;96.10;;;;;;5072727;28;20025;-72
2021/12/04 05:52:34;;;;;;;71.15;49.95;;;-0.40;96.40;;;;;;5074152;28;20040;-71
2021/12/04 05:55:18;;;;;;;73.32;51.95;;;-0.40;96.40;;;;;;5076352;28;20036;-72
2021/12/04 05:57:44;;;;;;;70.13;50.33;;;-0.40;96.20;;;;;;5046810;28;20031;-75
2021/12/04 06:00:18;;;;;;;70.15;50.20;;;-0.40;96.70;;;;;;5045235;28;20024;-72
2021/12/04 06:02:45;;;;;;;67.43;46.47;;;-0.30;96.40;;;;;;5078802;28;20106;-72
2021/12/04 06:05:12;;;;;;;59.53;42.15;;;-0.30;96.20;;;;;;5057554;28;20470;-73
2021/12/04 06:07:38;;;;;;;57.58;41.63;;;-0.30;96.50;;;;;;5082441;28;20024;-73
2021/12/04 06:10:05;;;;;;;49.42;37.75;;;-0.20;96.40;;;;;;5079851;28;20432;-71
2021/12/04 06:12:31;;;;;;;50.85;37.80;;;-0.30;96.40;;;;;;5055292;28;20031;-72
2021/12/04 06:14:58;;;;;;;52.53;39.63;;;-0.20;96.50;;;;;;5073467;28;20441;-71
2021/12/04 06:17:25;;;;;;;54.15;41.95;;;-0.20;96.50;;;;;;5069482;28;20040;-71
2021/12/04 06:22:38;;;;;;;41.70;33.67;;;-0.10;96.70;;;;;;5090568;28;20050;-73
2021/12/04 06:25:06;;;;;;;44.05;33.85;;;0.00;97.20;;;;;;5074591;28;20040;-72
2021/12/04 06:27:32;;;;;;;39.67;30.10;;;0.10;97.70;;;;;;5065297;28;20042;-70
2021/12/04 06:29:58;;;;;;;39.72;30.65;;;0.50;99.90;;;;;;5074937;28;20119;-72
2021/12/04 06:32:23;;;;;;;32.88;26.52;;;1.20;99.90;;;;;;5092698;28;20051;-71
2021/12/04 06:34:49;;;;;;;35.25;26.73;;;2.00;99.90;;;;;;5075256;28;20024;-72
2021/12/04 06:37:15;;;;;;;27.85;22.15;;;2.80;98.20;;;;;;5075500;28;20423;-71
2021/12/04 06:39:41;;;;;;;33.67;24.67;;;3.60;93.70;;;;;;5093384;28;20153;-70
2021/12/04 06:42:07;;;;;;;29.55;23.52;;;4.20;90.70;;;;;;5089589;28;20051;-71
2021/12/04 06:44:33;;;;;;;31.48;24.30;;;4.90;88.60;;;;;;5073175;28;20033;-71
2021/12/04 06:46:59;;;;;;;28.85;22.27;;;5.70;85.00;;;;;;5073435;28;20031;-71
2021/12/04 06:49:30;;;;;;;29.42;23.50;;;6.40;81.70;;;;;;5073318;28;20025;-71
2021/12/04 06:51:59;;;;;;;26.90;22.02;;;7.00;78.10;;;;;;5055961;28;20025;-72
2021/12/04 06:54:28;;;;;;;27.13;22.15;;;7.40;75.30;;;;;;5072029;28;20032;-70
2021/12/04 06:56:54;;;;;;;27.33;20.48;;;7.80;72.80;;;;;;5095993;28;20038;-71
2021/12/04 06:59:24;;;;;;;25.55;20.73;;;8.30;71.40;;;;;;5101405;28;20032;-72
2021/12/04 07:01:50;;;;;;;27.75;21.23;;;8.50;69.60;;;;;;5102774;28;20020;-72
2021/12/04 07:04:18;;;;;;;26.42;21.58;;;8.70;68.40;;;;;;5100713;28;20037;-72
2021/12/04 07:06:45;;;;;;;25.80;21.90;;;8.70;66.60;;;;;;5101224;28;20445;-72
2021/12/04 07:09:11;;;;;;;25.70;20.25;;;8.50;66.20;;;;;;5081880;28;20176;-71
2021/12/04 07:11:37;;;;;;;28.13;20.65;;;8.60;65.80;;;;;;5078823;28;20024;-72
2021/12/04 07:14:03;;;;;;;25.23;20.30;;;8.70;65.20;;;;;;5078149;28;20032;-72
2021/12/04 07:16:29;;;;;;;25.77;20.77;;;8.90;64.60;;;;;;5075310;28;20028;-72
2021/12/04 07:18:55;;;;;;;26.13;21.50;;;9.00;63.90;;;;;;5077235;28;20482;-72
2021/12/04 07:21:21;;;;;;;25.65;21.55;;;9.30;64.20;;;;;;5087205;28;20053;-73
2021/12/04 07:23:46;;;;;;;27.58;20.10;;;9.90;63.70;;;;;;5079180;28;20032;-72
2021/12/04 07:26:13;;;;;;;24.20;20.33;;;10.50;62.30;;;;;;5091246;28;20028;-72
2021/12/04 07:28:39;;;;;;;23.45;19.30;;;11.00;61.10;;;;;;5087772;28;20024;-72
2021/12/04 07:31:04;;;;;;;25.45;20.95;;;11.40;59.40;;;;;;5088728;28;20475;-72
2021/12/04 07:33:31;;;;;;;25.23;20.98;;;11.60;58.60;;;;;;5077300;28;20032;-74
2021/12/04 07:36:00;;;;;;;26.83;21.73;;;11.90;57.80;;;;;;5074365;28;20484;-73
2021/12/04 07:38:27;;;;;;;29.17;22.23;;;12.20;57.00;;;;;;5075686;28;20070;-73
2021/12/04 07:40:52;;;;;;;29.45;22.13;;;12.50;56.80;;;;;;5074374;28;20054;-72
2021/12/04 07:43:18;;;;;;;30.55;25.05;;;12.70;55.70;;;;;;5074171;28;20092;-72
2021/12/04 07:45:44;;;;;;;29.98;24.45;;;13.00;54.50;;;;;;5076992;28;20020;-73
2021/12/04 07:48:10;;;;;;;33.28;24.33;;;13.00;54.40;;;;;;5073632;28;20474;-72
2021/12/04 07:50:37;;;;;;;33.42;24.75;;;13.10;54.00;;;;;;5074771;28;20373;-73
2021/12/04 07:53:03;;;;;;;30.38;22.70;;;13.20;53.40;;;;;;5079393;28;20378;-72
2021/12/04 07:55:29;;;;;;;29.10;20.67;;;13.30;53.00;;;;;;5079722;28;20020;-73
2021/12/04 07:57:55;;;;;;;26.80;20.27;;;13.50;52.40;;;;;;5078081;28;20025;-73
2021/12/04 08:00:22;;;;;;;26.08;19.92;;;13.40;51.70;;;;;;5074211;28;20031;-74
2021/12/04 08:02:48;;;;;;;25.63;20.25;;;13.40;51.90;;;;;;5084153;28;20462;-73
2021/12/04 08:05:16;;;;;;;26.63;21.90;;;13.30;51.40;;;;;;5095365;28;20405;-72
2021/12/04 08:07:42;;;;;;;24.08;18.90;;;12.90;50.90;;;;;;5094451;28;20468;-72
2021/12/04 08:10:11;;;;;;;23.35;18.55;;;12.30;51.90;;;;;;5094226;28;20107;-71
2021/12/04 08:12:37;;;;;;;24.80;19.65;;;12.10;51.80;;;;;;5075885;28;20478;-76
2021/12/04 08:15:08;;;;;;;25.73;20.08;;;11.60;52.20;;;;;;5074349;28;20872;-76
2021/12/04 08:17:34;;;;;;;23.95;19.10;;;11.40;52.60;;;;;;5057809;28;20043;-75
2021/12/04 08:20:00;;;;;;;25.63;19.38;;;11.60;53.20;;;;;;5074501;28;20079;-74
2021/12/04 08:22:26;;;;;;;22.65;18.65;;;12.00;53.00;;;;;;5077166;28;20052;-74
2021/12/04 08:24:52;;;;;;;23.63;18.20;;;12.50;52.70;;;;;;5089025;28;20456;-75
2021/12/04 08:27:18;;;;;;;24.33;19.50;;;13.10;52.10;;;;;;5075833;28;20033;-71
2021/12/04 08:29:44;;;;;;;22.63;18.80;;;13.80;51.10;;;;;;5075418;28;20043;-71
2021/12/04 08:32:10;;;;;;;22.02;18.55;;;14.30;50.10;;;;;;5075325;28;20028;-71
2021/12/04 08:34:36;;;;;;;22.08;17.55;;;14.50;49.40;;;;;;5075177;28;20032;-71
2021/12/04 08:37:03;;;;;;;22.42;18.02;;;14.60;49.00;;;;;;5084458;28;20023;-73
2021/12/04 08:39:30;;;;;;;25.60;18.65;;;14.70;48.80;;;;;;5083510;28;20024;-71
2021/12/04 08:41:56;;;;;;;24.30;18.88;;;15.10;48.60;;;;;;5071228;28;20103;-71
2021/12/04 08:44:22;;;;;;;26.45;20.13;;;15.50;47.70;;;;;;5089450;28;20171;-71
2021/12/04 08:46:48;;;;;;;27.80;20.77;;;15.60;46.90;;;;;;5070630;28;20024;-72
2021/12/04 08:49:14;;;;;;;28.55;22.00;;;15.60;46.60;;;;;;5070895;28;20029;-71
2021/12/04 08:51:42;;;;;;;27.73;21.25;;;15.40;46.10;;;;;;5076415;28;20066;-72
2021/12/04 08:54:08;;;;;;;29.10;21.73;;;15.10;46.50;;;;;;5086702;28;20028;-72
2021/12/04 08:56:34;;;;;;;29.77;22.25;;;15.30;46.90;;;;;;5075416;28;20036;-72
2021/12/04 08:59:02;;;;;;;29.45;22.10;;;15.60;46.70;;;;;;5070259;28;20059;-72
2021/12/04 09:01:32;;;;;;;28.88;21.30;;;15.90;46.00;;;;;;5070241;28;20364;-72
2021/12/04 09:04:04;;;;;;;25.42;19.80;;;16.10;45.90;;;;;;5074194;28;20102;-73
2021/12/04 09:06:31;;;;;;;24.90;19.05;;;16.40;45.60;;;;;;5079184;28;20073;-71
2021/12/04 09:08:57;;;;;;;25.92;18.92;;;16.50;44.50;;;;;;5062563;28;20390;-72
2021/12/04 09:11:28;;;;;;;24.33;18.27;;;16.60;44.30;;;;;;5079768;28;20381;-71
2021/12/04 09:13:55;;;;;;;23.42;19.08;;;16.40;43.80;;;;;;5078994;28;20044;-72
2021/12/04 09:16:21;;;;;;;23.65;18.92;;;16.40;44.30;;;;;;5070653;28;20492;-72
2021/12/04 09:18:47;;;;;;;22.48;18.83;;;16.60;43.90;;;;;;5087853;28;20037;-72
2021/12/04 09:21:13;;;;;;;26.80;19.35;;;16.70;43.70;;;;;;5065905;28;20461;-72
2021/12/04 09:23:44;;;;;;;24.17;18.85;;;16.90;43.50;;;;;;5085824;28;20042;-72
2021/12/04 09:26:15;;;;;;;24.33;19.25;;;16.90;43.40;;;;;;5086588;28;20099;-72
2021/12/04 09:28:52;;;;;;;24.42;19.50;;;17.00;43.40;;;;;;5070829;28;20031;-72
2021/12/04 10:04:26;;;;;;;25.90;20.60;;;15.80;43.30;;;;;;5073415;28;20040;-73
2021/12/04 10:33:56;;;;;;;37.53;26.23;;;14.80;45.90;;;;;;5027006;28;20091;-74
2021/12/04 10:36:38;;;;;;;36.88;26.90;;;14.90;45.80;;;;;;5066252;28;20471;-72
2021/12/04 10:39:08;;;;;;;34.22;25.77;;;15.00;45.70;;;;;;5083114;28;20054;-73
2021/12/04 10:41:39;;;;;;;39.30;26.17;;;15.00;45.80;;;;;;5072640;28;20024;-72
2021/12/04 10:44:25;;;;;;;40.83;28.67;;;15.40;45.90;;;;;;5077853;28;20028;-72
2021/12/04 10:47:10;;;;;;;47.15;29.55;;;15.50;45.30;;;;;;5099364;28;20028;-72
2021/12/04 10:56:23;;;;;;;38.20;27.48;;;14.90;45.60;;;;;;5099503;28;20024;-71
2021/12/04 11:01:13;;;;;;;41.63;26.95;;;14.50;45.80;;;;;;5097309;28;20036;-72
2021/12/04 11:41:53;;;;;;;55.50;38.22;;;12.60;50.00;;;;;;5099866;28;20030;-72
2021/12/04 11:44:05;;;;;;;49.35;38.13;;;12.80;49.70;;;;;;5088878;28;20036;-72
2021/12/04 11:46:48;;;;;;;52.25;36.72;;;12.80;49.70;;;;;;5095430;28;20386;-71
2021/12/04 11:49:20;;;;;;;56.08;39.95;;;13.00;49.40;;;;;;5095966;28;20028;-71
2021/12/04 11:51:56;;;;;;;58.10;40.90;;;13.00;49.20;;;;;;5087353;28;20024;-70
2021/12/04 11:54:22;;;;;;;;;;;13.00;49.00;;;;;;5058723;28;20029;-70
2021/12/04 11:57:01;;;;;;;64.85;43.22;;;13.00;49.20;;;;;;5058307;28;19904;-70
2021/12/04 11:59:32;;;;;;;60.92;42.88;;;12.90;49.20;;;;;;5076232;28;20048;-72
2021/12/04 12:02:00;;;;;;;51.78;35.60;;;12.90;49.40;;;;;;5058115;28;20024;-71
2021/12/04 12:04:44;;;;;;;45.40;32.50;;;12.80;49.30;;;;;;5058276;28;20032;-71
2021/12/04 12:07:19;;;;;;;42.67;32.33;;;12.80;49.30;;;;;;5058282;28;20116;-70
2021/12/04 12:09:47;;;;;;;55.35;42.10;;;12.70;49.50;;;;;;5057956;28;20029;-70
2021/12/04 12:12:16;;;;;;;63.15;44.30;;;12.50;49.40;;;;;;5075964;28;20032;-70
2021/12/04 12:14:50;;;;;;;59.70;41.83;;;12.10;49.80;;;;;;5058511;28;20119;-70
2021/12/04 12:17:30;;;;;;;44.53;34.70;;;11.80;50.50;;;;;;5059168;28;20032;-69
2021/12/04 12:19:56;;;;;;;54.17;38.58;;;11.50;51.00;;;;;;5063161;28;20048;-70
2021/12/04 12:25:24;;;;;;;48.63;37.28;;;11.10;51.90;;;;;;5078721;28;20539;-71
2021/12/04 12:33:19;;;;;;;40.40;32.30;;;10.50;53.10;;;;;;5075710;28;20047;-71
2021/12/04 12:36:32;;;;;;;41.72;32.97;;;10.40;53.50;;;;;;5075745;28;20031;-71
2021/12/04 12:38:56;;;;;;;44.55;32.88;;;10.10;54.00;;;;;;5072203;28;20041;-71
2021/12/04 12:41:27;;;;;;;41.15;30.10;;;9.90;54.40;;;;;;5074096;28;20035;-71
2021/12/04 12:44:17;;;;;;;44.60;30.98;;;9.60;55.00;;;;;;5075218;28;20032;-71
2021/12/04 12:46:58;;;;;;;40.03;32.75;;;9.10;55.90;;;;;;5062963;28;20450;-73
2021/12/04 12:49:26;;;;;;;54.45;34.83;;;8.60;56.80;;;;;;5061754;28;20530;-74
2021/12/04 12:52:12;;;;;;;48.58;34.00;;;8.20;57.90;;;;;;5093754;28;20038;-73
2021/12/04 12:55:05;;;;;;;66.70;37.50;;;7.70;59.10;;;;;;5069078;28;20033;-72
2021/12/04 12:57:41;;;;;;;70.03;36.80;;;7.20;60.20;;;;;;5072748;28;20485;-71
2021/12/04 13:12:15;;;;;;;72.15;40.80;;;5.60;64.70;;;;;;5075175;28;20114;-69
2021/12/04 13:14:41;;;;;;;56.22;37.47;;;5.30;66.30;;;;;;5075460;28;20040;-71
2021/12/04 13:17:11;;;;;;;51.10;38.03;;;5.00;66.70;;;;;;5084998;28;20036;-68
2021/12/04 13:19:44;;;;;;;57.00;39.20;;;4.80;68.00;;;;;;5085962;28;20036;-70
2021/12/04 13:22:14;;;;;;;57.72;39.30;;;4.70;68.90;;;;;;5070029;28;20126;-70
2021/12/04 13:24:42;;;;;;;53.65;35.97;;;4.50;69.60;;;;;;5061078;28;20036;-72
2021/12/04 13:29:41;;;;;;;50.00;36.28;;;4.30;71.00;;;;;;5074264;28;20036;-70
2021/12/04 13:32:09;;;;;;;60.78;40.75;;;4.20;71.90;;;;;;5065386;28;20070;-71
2021/12/04 13:34:37;;;;;;;62.83;41.13;;;4.10;72.30;;;;;;5074355;28;20082;-70
2021/12/04 13:37:03;;;;;;;85.97;49.47;;;4.00;72.70;;;;;;5074293;28;20024;-71
2021/12/04 13:39:29;;;;;;;62.28;41.78;;;3.90;73.20;;;;;;5077205;28;20021;-72
2021/12/04 13:41:56;;;;;;;68.60;44.85;;;3.80;73.70;;;;;;5075936;28;20076;-70
2021/12/04 13:44:25;;;;;;;55.65;40.00;;;3.70;74.40;;;;;;5067098;28;20067;-72
2021/12/04 13:47:01;;;;;;;50.03;36.72;;;3.60;74.90;;;;;;5092760;28;20058;-71
2021/12/04 13:49:57;;;;;;;54.72;39.00;;;3.60;75.60;;;;;;5084708;28;20474;-70
2021/12/04 13:52:25;;;;;;;51.65;37.72;;;3.50;76.00;;;;;;5075703;28;20035;-70
2021/12/04 13:55:02;;;;;;;58.67;43.95;;;3.40;76.10;;;;;;5075835;28;20032;-71
2021/12/04 13:57:28;;;;;;;89.53;66.65;;;3.30;76.80;;;;;;5071714;28;20032;-71
2021/12/04 14:00:02;;;;;;;92.03;67.30;;;3.30;77.30;;;;;;5073826;28;20140;-72
2021/12/04 14:02:31;;;;;;;136.77;92.57;;;3.20;78.10;;;;;;5074769;28;20028;-72
2021/12/04 14:05:15;;;;;;;134.20;94.75;;;3.10;78.40;;;;;;5080340;28;20031;-71
2021/12/04 14:07:48;;;;;;;137.60;87.30;;;3.10;79.20;;;;;;5074766;28;20118;-71
2021/12/04 14:10:17;;;;;;;129.18;85.68;;;3.00;79.50;;;;;;5088009;28;20064;-71
2021/12/04 14:12:43;;;;;;;69.25;48.22;;;3.00;79.80;;;;;;5080205;28;20027;-70
2021/12/04 14:15:15;;;;;;;79.50;52.83;;;2.90;80.10;;;;;;5082685;28;20028;-70
2021/12/04 14:17:42;;;;;;;84.55;56.40;;;2.80;80.60;;;;;;5067011;28;20382;-68
2021/12/04 14:20:12;;;;;;;104.20;65.50;;;2.80;81.00;;;;;;5075345;28;20584;-70
2021/12/04 14:22:49;;;;;;;123.47;76.72;;;2.70;81.30;;;;;;5075465;28;20027;-69
2021/12/04 14:25:16;;;;;;;96.15;61.85;;;2.60;81.80;;;;;;5087464;28;20051;-70
2021/12/04 14:27:45;;;;;;;106.57;61.78;;;2.60;82.10;;;;;;5084243;28;20494;-71
2021/12/04 14:30:18;;;;;;;136.30;79.82;;;2.50;82.50;;;;;;5056063;28;20410;-70
2021/12/04 14:32:50;;;;;;;134.45;82.32;;;2.50;82.90;;;;;;5056108;28;20035;-72
2021/12/04 14:35:18;;;;;;;170.43;103.93;;;2.40;83.10;;;;;;5063184;28;20032;-70
2021/12/04 14:37:52;;;;;;;120.90;74.07;;;2.40;83.40;;;;;;5070753;28;20378;-73
2021/12/04 14:40:23;;;;;;;128.80;79.13;;;2.30;83.90;;;;;;5091180;28;20020;-71
2021/12/04 14:42:51;;;;;;;111.25;64.78;;;2.20;84.20;;;;;;5088623;28;20381;-71
2021/12/04 14:45:23;;;;;;;104.07;67.20;;;2.20;84.40;;;;;;5059813;28;20068;-77
2021/12/04 14:48:01;;;;;;;97.00;62.15;;;2.20;84.70;;;;;;5089315;28;20043;-71
2021/12/04 14:50:27;;;;;;;93.30;60.65;;;2.20;84.90;;;;;;5081311;28;20026;-71
2021/12/04 14:53:01;;;;;;;95.53;61.88;;;2.20;85.00;;;;;;5075272;28;20077;-72
2021/12/04 14:55:32;;;;;;;84.13;58.78;;;2.20;85.20;;;;;;5075375;28;20028;-72
2021/12/04 14:57:58;;;;;;;84.38;55.40;;;2.10;85.30;;;;;;5075402;28;20031;-70
2021/12/04 15:00:30;;;;;;;94.63;63.25;;;2.10;85.40;;;;;;5081987;28;20028;-69
2021/12/04 15:03:02;;;;;;;101.90;66.47;;;2.10;85.80;;;;;;5093837;28;20031;-71
2021/12/04 15:05:37;;;;;;;108.65;79.95;;;2.10;85.90;;;;;;5072695;28;20048;-71
2021/12/04 15:08:38;;;;;;;97.97;66.33;;;2.00;86.10;;;;;;5076581;28;20028;-72
2021/12/04 15:11:13;;;;;;;109.65;77.97;;;2.00;86.20;;;;;;5054658;28;20042;-72
2021/12/04 15:13:44;;;;;;;124.18;87.80;;;1.90;86.50;;;;;;5071215;28;20063;-72
2021/12/04 15:16:14;;;;;;;140.00;97.50;;;1.90;86.70;;;;;;5067646;28;20058;-76
2021/12/04 15:18:41;;;;;;;98.20;67.05;;;1.90;87.10;;;;;;5095211;28;20355;-77
2021/12/04 15:21:13;;;;;;;103.18;79.07;;;1.80;87.50;;;;;;5095699;28;20036;-72
2021/12/04 15:23:40;;;;;;;110.05;77.60;;;1.80;87.90;;;;;;5078678;28;20036;-79
2021/12/04 15:26:13;;;;;;;124.38;87.80;;;1.80;88.10;;;;;;5092349;28;20114;-78
2021/12/04 15:28:48;;;;;;;122.38;84.68;;;1.80;88.40;;;;;;5090790;28;20032;-78
2021/12/04 15:31:15;;;;;;;124.07;87.30;;;1.70;88.50;;;;;;5079355;28;20020;-79
2021/12/04 15:33:46;;;;;;;122.10;86.15;;;1.80;88.90;;;;;;5074240;28;20032;-78
2021/12/04 15:36:30;;;;;;;106.53;76.20;;;1.70;88.70;;;;;;5096959;28;20394;-79
2021/12/04 15:38:59;;;;;;;98.38;70.18;;;1.80;88.90;;;;;;5078002;28;20494;-80
2021/12/04 15:44:41;;;;;;;111.65;78.75;;;1.70;89.20;;;;;;5090361;28;20043;-79
2021/12/04 15:53:03;;;;;;;123.20;85.35;;;1.70;89.40;;;;;;5096639;28;20394;-77
2021/12/04 15:55:35;;;;;;;105.00;72.28;;;1.70;89.50;;;;;;5097510;28;20536;-79
2021/12/04 15:58:05;;;;;;;113.63;76.00;;;1.70;89.80;;;;;;5105947;28;20028;-78
2021/12/04 16:00:33;;;;;;;126.53;84.57;;;1.70;90.00;;;;;;5085736;28;20040;-79
2021/12/04 16:03:04;;;;;;;118.57;79.10;;;1.70;90.20;;;;;;5078970;28;20466;-78
2021/12/04 16:05:33;;;;;;;128.50;86.25;;;1.70;90.30;;;;;;5094425;28;20040;-78
2021/12/04 16:08:14;;;;;;;157.35;113.18;;;1.70;90.30;;;;;;5078092;28;20055;-80